Terminal Aerodrome Forecast
Issued by NWS

Home | Current Version | Previous Version | Text Only | Print | Product List | Glossary On
Versions: 1 2 3 4 5 6 7 8 9 10 11 12 13 14 15 16 17 18 19 20 21 22 23 24
000
FTUS43 KGRR 010500
TAFMKG
TAF
KMKG 010540Z 0106/0206 04009KT 2SM -SN OVC015
     FM011200 07013G21KT 3/4SM -SN OVC008
     FM011800 05018G29KT 1/2SM SN BLSN VV004=

USA.gov is the U.S. government's official web portal to all federal, state and local government web resources and services.